Floradale, Pennsylvania
Current Conditions -  °F | °C
As of 5:53 PM on Tuesday 27 Jan 2015 (Local Time) from KRYT Reporting Station
Few Clouds Few Clouds  
Wind Chill: 19°   Ceiling: Unl
Heat Index: 27°   Visibility: 10mi
Dew Point: 17°   Wind: 8mph
Humidity: 66%   Direction: 320°NW
Pressure: 29.81"   Gusts: 17mph
Location:  39.942°N, 77.3061°W
Report Text: KRYT 272253Z AUTO 32007G15KT 270V350 10SM FEW080 M03/M08 A2981 RMK AO2 SLP116 T10281083 $
Loading
Personal Weather Stations






























Interactive Weather Map New forecast layout! Learn more

10-Day Weather Forecast

Advertisements
Track Severe Weather on mobile